createdAt,value
2022-09-27T00:00:07.757Z,87.37
2022-09-27T00:01:07.846Z,87.32
2022-09-27T00:02:07.926Z,87.55
2022-09-27T00:03:07.657Z,87.41
2022-09-27T00:04:07.540Z,87.51
2022-09-27T00:05:07.489Z,87.27
2022-09-27T00:06:07.437Z,87.51
2022-09-27T00:07:07.383Z,87.74
2022-09-27T00:08:07.326Z,87.84
2022-09-27T00:09:07.278Z,87.70
2022-09-27T00:10:07.222Z,87.65
2022-09-27T00:11:07.171Z,87.65
2022-09-27T00:12:07.114Z,87.84
2022-09-27T00:13:07.062Z,87.55
2022-09-27T00:14:07.007Z,87.51
2022-09-27T00:15:06.954Z,87.65
2022-09-27T00:16:06.952Z,87.84
2022-09-27T00:17:06.855Z,87.84
2022-09-27T00:18:06.791Z,88.13
2022-09-27T00:19:06.743Z,88.42
2022-09-27T00:20:06.686Z,88.28
2022-09-27T00:21:06.633Z,87.99
2022-09-27T00:22:06.583Z,88.51
2022-09-27T00:23:06.526Z,88.23
2022-09-27T00:24:06.470Z,88.32
2022-09-27T00:25:06.418Z,88.42
2022-09-27T00:26:06.372Z,88.18
2022-09-27T00:27:06.313Z,88.23
2022-09-27T00:28:06.259Z,88.32
2022-09-27T00:29:06.208Z,88.47
2022-09-27T00:30:06.154Z,88.23
2022-09-27T00:31:06.152Z,88.23
2022-09-27T00:32:06.041Z,88.47
2022-09-27T00:33:05.997Z,88.23
2022-09-27T00:34:05.939Z,88.51
2022-09-27T00:35:05.900Z,88.47
2022-09-27T00:36:05.827Z,88.76
2022-09-27T00:37:05.777Z,88.28
2022-09-27T00:38:05.720Z,88.32
2022-09-27T00:39:05.669Z,88.66
2022-09-27T00:40:05.615Z,88.32
2022-09-27T00:41:05.640Z,88.32
2022-09-27T00:42:05.509Z,88.61
2022-09-27T00:43:05.459Z,88.80
2022-09-27T00:44:05.403Z,88.61
2022-09-27T00:45:05.347Z,88.47
2022-09-27T00:46:05.329Z,88.47
2022-09-27T00:47:05.242Z,88.66
2022-09-27T00:48:05.185Z,88.66
2022-09-27T00:49:05.150Z,88.66
2022-09-27T00:50:05.080Z,88.56
2022-09-27T00:51:05.026Z,88.56
2022-09-27T00:52:04.973Z,88.76
2022-09-27T00:53:04.919Z,88.80
2022-09-27T00:54:04.867Z,89.14
2022-09-27T00:55:04.812Z,88.95
2022-09-27T00:56:04.758Z,89.04
2022-09-27T00:57:04.703Z,88.95
2022-09-27T00:58:04.678Z,89.23
2022-09-27T00:59:04.601Z,89.04
2022-09-27T01:00:04.540Z,88.76
2022-09-27T01:01:04.539Z,88.76
2022-09-27T01:02:04.507Z,88.66
2022-09-27T01:03:04.417Z,88.76
2022-09-27T01:04:04.331Z,88.76
2022-09-27T01:05:04.281Z,88.85
2022-09-27T01:06:04.226Z,89.33
2022-09-27T01:07:04.169Z,89.43
2022-09-27T01:08:04.116Z,89.43
2022-09-27T01:09:04.060Z,89.33
2022-09-27T01:10:04.010Z,89.43
2022-09-27T01:11:03.957Z,89.33
2022-09-27T01:12:03.897Z,89.43
2022-09-27T01:13:03.847Z,89.52
2022-09-27T01:14:03.793Z,89.81
2022-09-27T01:15:03.740Z,89.72
2022-09-27T01:16:03.754Z,89.43
2022-09-27T01:17:03.631Z,89.33
2022-09-27T01:18:03.578Z,89.43
2022-09-27T01:19:03.524Z,89.33
2022-09-27T01:20:03.467Z,89.62
2022-09-27T01:21:03.424Z,88.76
2022-09-27T01:22:03.361Z,89.43
2022-09-27T01:23:03.312Z,89.52
2022-09-27T01:24:03.254Z,90.00
2022-09-27T01:25:03.201Z,90.00
2022-09-27T01:26:03.188Z,89.33
2022-09-27T01:27:03.095Z,89.14
2022-09-27T01:28:03.101Z,89.52
2022-09-27T01:29:02.988Z,89.43
2022-09-27T01:30:02.933Z,89.52
2022-09-27T01:31:02.934Z,89.62
2022-09-27T01:32:02.833Z,89.52
2022-09-27T01:33:02.774Z,90.00
2022-09-27T01:34:02.717Z,89.81
2022-09-27T01:35:02.668Z,90.00
2022-09-27T01:36:02.610Z,89.52
2022-09-27T01:37:02.566Z,89.62
2022-09-27T01:38:02.504Z,90.19
2022-09-27T01:39:02.454Z,90.09
2022-09-27T01:40:02.396Z,90.09
2022-09-27T01:41:02.414Z,90.00
2022-09-27T01:42:02.291Z,89.72
2022-09-27T01:43:02.238Z,89.81
2022-09-27T01:44:02.183Z,89.81
2022-09-27T01:45:02.127Z,89.90
2022-09-27T01:46:02.179Z,89.81
2022-09-27T01:47:02.022Z,90.29
2022-09-27T01:48:01.969Z,90.29
2022-09-27T01:49:01.913Z,90.96
2022-09-27T01:50:01.875Z,89.81
2022-09-27T01:51:01.806Z,89.90
2022-09-27T01:52:01.755Z,89.81
2022-09-27T01:53:01.705Z,90.00
2022-09-27T01:54:01.646Z,90.09
2022-09-27T01:55:01.594Z,90.29
2022-09-27T01:56:01.539Z,89.81
2022-09-27T01:57:01.484Z,90.00
2022-09-27T01:58:01.436Z,89.72
2022-09-27T01:59:01.377Z,89.81
2022-09-27T02:00:01.332Z,90.29
2022-09-27T02:01:01.306Z,90.19
2022-09-27T02:02:01.216Z,90.48
2022-09-27T02:03:01.240Z,90.29
2022-09-27T02:04:01.108Z,90.58
2022-09-27T02:05:01.056Z,90.58
2022-09-27T02:06:01.006Z,90.77
2022-09-27T02:07:00.946Z,90.67
2022-09-27T02:08:00.893Z,90.39
2022-09-27T02:09:00.847Z,90.67
2022-09-27T02:10:00.788Z,90.48
2022-09-27T02:11:00.737Z,90.39
2022-09-27T02:12:00.678Z,90.58
2022-09-27T02:13:00.624Z,90.29
2022-09-27T02:14:00.572Z,90.39
2022-09-27T02:15:00.516Z,90.29
2022-09-27T02:16:00.534Z,90.29
2022-09-27T02:17:00.408Z,90.39
2022-09-27T02:18:00.357Z,90.29
2022-09-27T02:19:00.306Z,90.19
2022-09-27T02:20:00.253Z,90.96
2022-09-27T02:21:00.194Z,90.19
2022-09-27T02:22:00.143Z,90.19
2022-09-27T02:23:00.089Z,90.96
2022-09-27T02:24:00.034Z,90.86
2022-09-27T02:24:59.987Z,90.96
2022-09-27T02:26:01.799Z,90.58
2022-09-27T02:26:59.875Z,91.15
2022-09-27T02:27:59.819Z,91.44
2022-09-27T02:28:59.763Z,91.25
2022-09-27T02:29:59.711Z,90.96
2022-09-27T02:30:59.741Z,90.86
2022-09-27T02:31:59.603Z,91.15
2022-09-27T02:32:59.663Z,91.25
2022-09-27T02:33:59.498Z,91.15
2022-09-27T02:34:59.447Z,91.05
2022-09-27T02:35:59.389Z,91.05
2022-09-27T02:36:59.334Z,91.25
2022-09-27T02:37:59.283Z,91.15
2022-09-27T02:38:59.227Z,91.05
2022-09-27T02:39:59.177Z,91.15
2022-09-27T02:40:59.204Z,91.25
2022-09-27T02:41:59.066Z,90.96
2022-09-27T02:42:59.016Z,91.15
2022-09-27T02:43:58.960Z,91.15
2022-09-27T02:44:58.906Z,91.15
2022-09-27T02:45:58.926Z,91.34
2022-09-27T02:46:58.798Z,91.63
2022-09-27T02:47:58.744Z,91.34
2022-09-27T02:48:58.705Z,91.63
2022-09-27T02:49:58.637Z,92.78
2022-09-27T02:50:58.583Z,92.21
2022-09-27T02:51:58.530Z,92.40
2022-09-27T02:52:58.478Z,92.30
2022-09-27T02:53:58.421Z,92.21
2022-09-27T02:54:58.368Z,92.78
2022-09-27T02:55:58.314Z,92.58
2022-09-27T02:56:58.267Z,92.78
2022-09-27T02:57:58.209Z,92.49
2022-09-27T02:58:58.153Z,92.58
2022-09-27T02:59:58.100Z,92.87
2022-09-27T03:00:58.077Z,92.58
2022-09-27T03:01:58.070Z,92.68
2022-09-27T03:02:58.046Z,92.40
2022-09-27T03:03:57.883Z,92.58
2022-09-27T03:04:57.837Z,92.87
2022-09-27T03:05:57.776Z,92.49
2022-09-27T03:06:57.722Z,92.30
2022-09-27T03:07:57.670Z,92.21
2022-09-27T03:08:57.613Z,92.30
2022-09-27T03:09:57.562Z,92.40
2022-09-27T03:10:57.508Z,91.82
2022-09-27T03:11:57.479Z,92.30
2022-09-27T03:12:57.409Z,92.01
2022-09-27T03:14:08.347Z,92.21
2022-09-27T03:14:57.298Z,92.30
2022-09-27T03:16:01.433Z,91.92
2022-09-27T03:16:57.221Z,91.53
2022-09-27T03:17:57.131Z,92.11
2022-09-27T03:18:57.075Z,92.11
2022-09-27T03:19:57.022Z,91.72
2022-09-27T03:20:56.968Z,92.11
2022-09-27T03:21:56.915Z,92.30
2022-09-27T03:22:56.864Z,92.63
2022-09-27T03:23:56.810Z,92.21
2022-09-27T03:24:56.752Z,92.40
2022-09-27T03:25:56.701Z,92.35
2022-09-27T03:26:56.645Z,92.16
2022-09-27T03:27:56.593Z,92.49
2022-09-27T03:28:56.549Z,92.11
2022-09-27T03:29:56.486Z,92.30
2022-09-27T03:30:56.462Z,92.25
2022-09-27T03:31:56.379Z,92.11
2022-09-27T03:32:56.323Z,92.21
2022-09-27T03:33:56.271Z,91.82
2022-09-27T03:34:56.215Z,92.01
2022-09-27T03:36:17.151Z,92.49
2022-09-27T03:36:56.108Z,91.49
2022-09-27T03:37:56.058Z,91.63
2022-09-27T03:38:56.001Z,91.77
2022-09-27T03:39:55.949Z,91.53
2022-09-27T03:40:55.988Z,91.63
2022-09-27T03:41:55.840Z,91.72
2022-09-27T03:42:55.786Z,91.82
2022-09-27T03:43:55.729Z,91.72
2022-09-27T03:44:55.685Z,91.34
2022-09-27T03:45:55.686Z,91.92
2022-09-27T03:46:55.571Z,91.34
2022-09-27T03:47:55.514Z,91.11
2022-09-27T03:48:55.462Z,91.30
2022-09-27T03:49:55.407Z,90.91
2022-09-27T03:50:55.367Z,91.30
2022-09-27T03:51:55.300Z,91.20
2022-09-27T03:52:55.248Z,91.30
2022-09-27T03:53:55.191Z,91.01
2022-09-27T03:54:59.734Z,91.25
2022-09-27T03:55:55.085Z,90.82
2022-09-27T03:56:55.032Z,91.20
2022-09-27T03:57:54.975Z,91.49
2022-09-27T03:58:54.923Z,91.49
2022-09-27T03:59:54.868Z,91.20
2022-09-27T04:00:54.878Z,91.20
2022-09-27T04:01:54.861Z,91.11
2022-09-27T04:02:54.786Z,91.11
2022-09-27T04:03:54.655Z,91.39
2022-09-27T04:04:54.600Z,90.91
2022-09-27T04:05:54.578Z,91.20
2022-09-27T04:06:54.492Z,90.72
2022-09-27T04:07:54.437Z,90.91
2022-09-27T04:08:54.384Z,90.82
2022-09-27T04:09:54.329Z,90.72
2022-09-27T04:10:54.278Z,90.82
2022-09-27T04:11:54.222Z,90.24
2022-09-27T04:12:54.170Z,90.15
2022-09-27T04:13:54.114Z,90.91
2022-09-27T04:14:54.062Z,90.91
2022-09-27T04:15:54.013Z,90.91
2022-09-27T04:16:54.031Z,91.20
2022-09-27T04:17:53.898Z,91.01
2022-09-27T04:18:53.851Z,90.15
2022-09-27T04:19:53.796Z,90.91
2022-09-27T04:20:53.740Z,90.53
2022-09-27T04:21:53.683Z,90.82
2022-09-27T04:22:53.630Z,90.82
2022-09-27T04:23:53.573Z,90.72
2022-09-27T04:24:53.525Z,90.91
2022-09-27T04:25:53.466Z,90.24
2022-09-27T04:26:53.414Z,90.72
2022-09-27T04:27:53.360Z,90.91
2022-09-27T04:28:54.745Z,90.34
2022-09-27T04:29:53.251Z,90.34
2022-09-27T04:30:53.235Z,90.34
2022-09-27T04:31:53.150Z,90.72
2022-09-27T04:32:53.099Z,90.82
2022-09-27T04:33:53.036Z,90.72
2022-09-27T04:34:52.986Z,90.82
2022-09-27T04:35:52.926Z,90.72
2022-09-27T04:36:52.875Z,90.91
2022-09-27T04:37:52.819Z,90.82
2022-09-27T04:38:52.770Z,90.44
2022-09-27T04:39:52.712Z,91.30
2022-09-27T04:40:52.700Z,90.72
2022-09-27T04:41:52.603Z,90.91
2022-09-27T04:42:52.555Z,90.53
2022-09-27T04:43:56.736Z,90.82
2022-09-27T04:44:52.563Z,91.20
2022-09-27T04:45:52.488Z,90.91
2022-09-27T04:46:52.337Z,90.82
2022-09-27T04:47:52.284Z,90.82
2022-09-27T04:48:52.237Z,90.91
2022-09-27T04:49:52.172Z,90.63
2022-09-27T04:50:52.231Z,90.91
2022-09-27T04:51:52.065Z,90.72
2022-09-27T04:52:52.012Z,90.72
2022-09-27T04:53:51.957Z,90.91
2022-09-27T04:54:51.904Z,90.82
2022-09-27T04:55:51.846Z,91.11
2022-09-27T04:56:51.800Z,90.91
2022-09-27T04:57:51.739Z,90.82
2022-09-27T04:58:51.690Z,90.82
2022-09-27T04:59:51.631Z,90.72
2022-09-27T05:00:51.580Z,90.63
2022-09-27T05:01:51.562Z,91.11
2022-09-27T05:02:51.537Z,90.72
2022-09-27T05:03:51.419Z,90.72
2022-09-27T05:04:51.370Z,91.11
2022-09-27T05:05:51.309Z,91.01
2022-09-27T05:06:56.315Z,90.44
2022-09-27T05:07:51.205Z,90.91
2022-09-27T05:08:51.242Z,91.20
2022-09-27T05:09:51.096Z,90.53
2022-09-27T05:10:51.040Z,90.44
2022-09-27T05:11:50.987Z,90.82
2022-09-27T05:12:50.935Z,90.82
2022-09-27T05:13:50.876Z,90.63
2022-09-27T05:14:50.823Z,91.11
2022-09-27T05:15:50.767Z,90.91
2022-09-27T05:16:50.760Z,91.30
2022-09-27T05:17:50.667Z,91.39
2022-09-27T05:18:50.608Z,90.72
2022-09-27T05:19:50.555Z,91.20
2022-09-27T05:20:50.504Z,90.72
2022-09-27T05:21:50.445Z,90.44
2022-09-27T05:22:50.416Z,91.39
2022-09-27T05:23:50.335Z,90.53
2022-09-27T05:24:50.284Z,90.91
2022-09-27T05:25:50.229Z,90.91
2022-09-27T05:26:50.176Z,91.01
2022-09-27T05:27:50.121Z,91.20
2022-09-27T05:28:50.067Z,90.82
2022-09-27T05:29:50.011Z,91.01
2022-09-27T05:30:50.020Z,90.91
2022-09-27T05:31:49.903Z,91.39
2022-09-27T05:32:49.850Z,91.20
2022-09-27T05:33:49.797Z,90.91
2022-09-27T05:34:49.744Z,90.91
2022-09-27T05:35:49.687Z,90.91
2022-09-27T05:36:49.641Z,91.01
2022-09-27T05:37:49.580Z,91.20
2022-09-27T05:38:49.526Z,91.01
2022-09-27T05:41:21.148Z,91.01
2022-09-27T05:42:21.013Z,90.82
2022-09-27T05:44:13.934Z,91.11
2022-09-27T05:45:13.812Z,90.91
2022-09-27T05:47:06.674Z,90.91
2022-09-27T05:48:06.619Z,91.11
2022-09-27T05:49:59.478Z,91.39
2022-09-27T05:50:59.414Z,91.11
2022-09-27T05:52:52.284Z,91.30
2022-09-27T05:53:52.214Z,91.01
2022-09-27T05:55:45.080Z,91.30
2022-09-27T05:56:45.019Z,91.39
2022-09-27T05:58:37.882Z,90.91
2022-09-27T05:59:37.815Z,91.01
2022-09-27T06:01:30.723Z,91.30
2022-09-27T06:02:30.650Z,90.91
2022-09-27T06:04:23.484Z,90.91
2022-09-27T06:05:23.416Z,91.11
2022-09-27T06:07:16.280Z,91.11
2022-09-27T06:08:16.229Z,91.20
2022-09-27T06:10:09.086Z,91.01
2022-09-27T06:11:09.018Z,91.30
2022-09-27T06:13:01.885Z,91.11
2022-09-27T06:14:01.824Z,91.30
2022-09-27T06:15:54.714Z,91.30
2022-09-27T06:16:54.702Z,91.20
2022-09-27T06:18:47.488Z,91.20
2022-09-27T06:19:47.427Z,90.91
2022-09-27T06:21:40.292Z,90.91
2022-09-27T06:22:40.226Z,91.11
2022-09-27T06:24:33.101Z,91.11
2022-09-27T06:25:33.029Z,90.91
2022-09-27T06:27:25.894Z,90.53
2022-09-27T06:28:25.828Z,91.20
2022-09-27T06:30:20.489Z,91.01
2022-09-27T06:31:18.657Z,90.63
2022-09-27T06:33:11.512Z,91.11
2022-09-27T06:34:11.437Z,90.82
2022-09-27T06:36:04.353Z,90.63
2022-09-27T06:37:04.237Z,90.72
2022-09-27T06:38:57.101Z,90.91
2022-09-27T06:39:57.041Z,91.20
2022-09-27T06:41:49.904Z,90.91
2022-09-27T06:42:49.837Z,90.63
2022-09-27T06:44:44.928Z,90.82
2022-09-27T06:45:42.690Z,91.11
2022-09-27T06:47:35.503Z,90.82
2022-09-27T06:48:35.442Z,90.91
2022-09-27T06:50:28.307Z,90.91
2022-09-27T06:51:28.241Z,90.82
2022-09-27T06:53:21.106Z,90.24
2022-09-27T06:54:21.046Z,90.72
2022-09-27T06:56:13.913Z,90.91
2022-09-27T06:57:13.851Z,90.72
2022-09-27T06:59:06.710Z,91.01
2022-09-27T07:00:06.645Z,90.72
2022-09-27T07:01:59.527Z,90.77
2022-09-27T07:02:59.456Z,90.91
2022-09-27T07:04:52.316Z,90.67
2022-09-27T07:05:52.248Z,91.01
2022-09-27T07:07:45.113Z,90.63
2022-09-27T07:08:45.057Z,90.91
2022-09-27T07:10:37.919Z,90.91
2022-09-27T07:11:37.862Z,91.16
2022-09-27T07:13:30.717Z,91.06
2022-09-27T07:14:30.656Z,90.91
2022-09-27T07:16:23.585Z,90.96
2022-09-27T07:17:23.465Z,91.06
2022-09-27T07:19:16.458Z,90.87
2022-09-27T07:20:17.376Z,91.35
2022-09-27T07:22:09.124Z,90.87
2022-09-27T07:23:09.064Z,91.06
2022-09-27T07:25:01.947Z,90.96
2022-09-27T07:26:01.863Z,91.16
2022-09-27T07:27:54.738Z,90.87
2022-09-27T07:28:54.671Z,91.06
2022-09-27T07:30:47.592Z,90.87
2022-09-27T07:31:47.473Z,91.06
2022-09-27T07:33:43.207Z,90.96
2022-09-27T07:34:40.271Z,90.96
2022-09-27T07:36:33.131Z,91.25
2022-09-27T07:37:33.074Z,91.35
2022-09-27T07:39:25.936Z,91.35
2022-09-27T07:40:25.975Z,91.06
2022-09-27T07:42:18.733Z,90.39
2022-09-27T07:43:18.679Z,91.16
2022-09-27T07:45:11.547Z,90.77
2022-09-27T07:46:11.499Z,90.77
2022-09-27T07:48:04.339Z,91.25
2022-09-27T07:49:04.275Z,91.16
2022-09-27T07:50:57.148Z,90.58
2022-09-27T07:51:57.082Z,90.77
2022-09-27T07:53:50.496Z,90.77
2022-09-27T07:54:50.440Z,90.87
2022-09-27T07:55:50.384Z,90.67
2022-09-27T07:56:50.322Z,90.67
2022-09-27T07:57:50.268Z,90.67
2022-09-27T07:58:50.232Z,91.16
2022-09-27T07:59:50.163Z,91.16
2022-09-27T08:00:50.177Z,90.77
2022-09-27T08:01:50.237Z,90.77
2022-09-27T08:02:49.994Z,91.16
2022-09-27T08:03:49.964Z,91.35
2022-09-27T08:04:49.940Z,90.30
2022-09-27T08:05:49.833Z,90.48
2022-09-27T08:06:49.787Z,91.16
2022-09-27T08:07:50.462Z,91.25
2022-09-27T08:08:49.673Z,90.77
2022-09-27T08:09:49.616Z,91.35
2022-09-27T08:10:49.560Z,90.77
2022-09-27T08:11:49.542Z,91.06
2022-09-27T08:12:49.453Z,91.35
2022-09-27T08:13:49.398Z,90.87
2022-09-27T08:14:49.359Z,90.87
2022-09-27T08:15:49.291Z,90.96
2022-09-27T08:16:49.309Z,90.87
2022-09-27T08:17:49.189Z,91.06
2022-09-27T08:18:49.124Z,90.87
2022-09-27T08:19:49.073Z,90.96
2022-09-27T08:20:49.016Z,91.06
2022-09-27T08:21:48.963Z,90.87
2022-09-27T08:22:48.907Z,90.87
2022-09-27T08:23:48.854Z,91.25
2022-09-27T08:24:48.800Z,91.63
2022-09-27T08:25:48.749Z,91.16
2022-09-27T08:26:48.690Z,91.06
2022-09-27T08:27:48.647Z,91.06
2022-09-27T08:28:48.591Z,91.25
2022-09-27T08:29:48.529Z,91.16
2022-09-27T08:30:48.482Z,91.16
2022-09-27T08:31:48.516Z,91.16
2022-09-27T08:32:48.459Z,91.44
2022-09-27T08:33:48.335Z,91.25
2022-09-27T08:34:48.371Z,91.25
2022-09-27T08:35:48.204Z,91.35
2022-09-27T08:36:48.147Z,91.06
2022-09-27T08:37:48.093Z,90.96
2022-09-27T08:38:48.051Z,91.11
2022-09-27T08:39:48.319Z,91.01
2022-09-27T08:40:48.012Z,91.11
2022-09-27T08:41:47.875Z,91.11
2022-09-27T08:42:47.824Z,91.01
2022-09-27T08:43:47.786Z,91.01
2022-09-27T08:44:47.719Z,90.96
2022-09-27T08:45:47.748Z,91.20
2022-09-27T08:46:47.616Z,90.96
2022-09-27T08:47:47.552Z,90.87
2022-09-27T08:48:47.497Z,91.49
2022-09-27T08:49:47.440Z,91.01
2022-09-27T08:50:47.386Z,91.30
2022-09-27T08:51:47.340Z,90.91
2022-09-27T08:52:47.278Z,91.20
2022-09-27T08:53:47.225Z,91.01
2022-09-27T08:54:47.168Z,91.20
2022-09-27T08:55:47.119Z,91.11
2022-09-27T08:56:47.059Z,91.11
2022-09-27T08:57:47.015Z,90.91
2022-09-27T08:58:46.954Z,91.01
2022-09-27T08:59:46.900Z,91.11
2022-09-27T09:00:46.887Z,91.30
2022-09-27T09:01:46.855Z,90.82
2022-09-27T09:02:46.747Z,90.91
2022-09-27T09:03:46.685Z,90.72
2022-09-27T09:04:46.631Z,90.82
2022-09-27T09:05:46.572Z,91.20
2022-09-27T09:06:46.516Z,90.15
2022-09-27T09:07:46.464Z,90.44
2022-09-27T09:08:50.847Z,90.44
2022-09-27T09:09:46.359Z,90.53
2022-09-27T09:10:46.299Z,90.63
2022-09-27T09:11:46.248Z,90.44
2022-09-27T09:12:46.190Z,90.24
2022-09-27T09:13:46.139Z,89.76
2022-09-27T09:14:46.086Z,90.05
2022-09-27T09:15:46.072Z,89.76
2022-09-27T09:16:46.020Z,89.67
2022-09-27T09:17:45.921Z,89.86
2022-09-27T09:18:45.876Z,90.05
2022-09-27T09:19:45.814Z,89.86
2022-09-27T09:20:45.758Z,90.24
2022-09-27T09:21:45.704Z,90.15
2022-09-27T09:22:45.649Z,90.15
2022-09-27T09:23:45.597Z,89.95
2022-09-27T09:24:45.547Z,89.67
2022-09-27T09:25:45.487Z,89.76
2022-09-27T09:26:45.440Z,89.67
2022-09-27T09:27:45.376Z,89.95
2022-09-27T09:28:45.324Z,89.95
2022-09-27T09:29:45.268Z,89.86
2022-09-27T09:30:45.216Z,89.86
2022-09-27T09:31:45.223Z,89.95
2022-09-27T09:32:45.109Z,89.48
2022-09-27T09:33:45.051Z,89.58
2022-09-27T09:34:45.008Z,89.48
2022-09-27T09:35:44.949Z,89.67
2022-09-27T09:36:45.484Z,89.76
2022-09-27T09:37:44.834Z,89.48
2022-09-27T09:38:44.782Z,89.58
2022-09-27T09:39:44.727Z,89.95
2022-09-27T09:40:44.714Z,89.48
2022-09-27T09:41:44.617Z,89.38
2022-09-27T09:42:44.564Z,89.38
2022-09-27T09:43:44.510Z,89.38
2022-09-27T09:44:44.456Z,89.38
2022-09-27T09:45:44.432Z,89.29
2022-09-27T09:46:45.929Z,89.38
2022-09-27T09:47:44.293Z,89.58
2022-09-27T09:48:44.239Z,89.58
2022-09-27T09:49:44.189Z,89.95
2022-09-27T09:50:44.141Z,89.86
2022-09-27T09:51:44.122Z,89.58
2022-09-27T09:52:44.022Z,89.86
2022-09-27T09:53:43.986Z,89.86
2022-09-27T09:54:43.916Z,89.58
2022-09-27T09:55:43.857Z,89.48
2022-09-27T09:56:43.806Z,89.67
2022-09-27T09:57:43.750Z,89.95
2022-09-27T09:58:43.701Z,89.38
2022-09-27T09:59:43.642Z,89.48
2022-09-27T10:00:43.635Z,89.38
2022-09-27T10:01:43.532Z,89.76
2022-09-27T10:02:43.496Z,89.76
2022-09-27T10:03:43.429Z,89.29
2022-09-27T10:04:43.372Z,89.58
2022-09-27T10:05:43.315Z,89.38
2022-09-27T10:06:43.274Z,89.19
2022-09-27T10:07:43.208Z,89.48
2022-09-27T10:08:43.155Z,89.67
2022-09-27T10:09:43.100Z,89.48
2022-09-27T10:10:43.048Z,89.29
2022-09-27T10:11:43.007Z,89.29
2022-09-27T10:12:42.938Z,89.29
2022-09-27T10:13:42.887Z,89.29
2022-09-27T10:14:42.829Z,89.38
2022-09-27T10:15:42.774Z,89.67
2022-09-27T10:16:42.780Z,89.38
2022-09-27T10:17:42.667Z,89.38
2022-09-27T10:18:47.596Z,88.90
2022-09-27T10:19:42.558Z,88.81
2022-09-27T10:20:42.506Z,88.90
2022-09-27T10:21:42.451Z,88.90
2022-09-27T10:22:42.405Z,88.81
2022-09-27T10:23:42.341Z,88.90
2022-09-27T10:24:42.289Z,88.62
2022-09-27T10:25:42.232Z,88.62
2022-09-27T10:26:42.179Z,88.52
2022-09-27T10:27:42.124Z,88.52
2022-09-27T10:28:42.071Z,88.23
2022-09-27T10:29:42.026Z,88.52
2022-09-27T10:30:41.964Z,88.90
2022-09-27T10:31:42.081Z,88.23
2022-09-27T10:32:41.855Z,88.23
2022-09-27T10:33:41.800Z,88.13
2022-09-27T10:34:41.747Z,88.13
2022-09-27T10:35:41.692Z,88.13
2022-09-27T10:36:41.639Z,88.13
2022-09-27T10:37:41.585Z,88.43
2022-09-27T10:38:41.549Z,88.43
2022-09-27T10:39:41.482Z,88.23
2022-09-27T10:40:41.482Z,87.76
2022-09-27T10:41:41.369Z,87.66
2022-09-27T10:42:41.313Z,87.76
2022-09-27T10:43:41.258Z,87.66
2022-09-27T10:44:41.205Z,87.66
2022-09-27T10:45:41.212Z,87.47
2022-09-27T10:46:41.097Z,87.37
2022-09-27T10:47:41.042Z,87.47
2022-09-27T10:48:40.990Z,87.56
2022-09-27T10:49:40.938Z,87.66
2022-09-27T10:50:50.870Z,87.47
2022-09-27T10:51:40.827Z,87.85
2022-09-27T10:52:40.774Z,87.37
2022-09-27T10:53:40.728Z,87.47
2022-09-27T10:54:40.676Z,87.56
2022-09-27T10:55:40.608Z,87.47
2022-09-27T10:56:40.560Z,87.61
2022-09-27T10:57:44.922Z,87.51
2022-09-27T10:58:40.448Z,87.37
2022-09-27T10:59:40.395Z,87.27
2022-09-27T11:00:40.370Z,87.70
2022-09-27T11:01:40.308Z,86.70
2022-09-27T11:02:40.231Z,87.37
2022-09-27T11:03:40.176Z,86.90
2022-09-27T11:04:51.398Z,87.13
2022-09-27T11:05:40.066Z,86.94
2022-09-27T11:06:40.020Z,86.94
2022-09-27T11:07:39.958Z,87.13
2022-09-27T11:08:39.909Z,87.37
2022-09-27T11:09:39.853Z,87.47
2022-09-27T11:10:39.810Z,86.74
2022-09-27T11:11:39.742Z,86.70
2022-09-27T11:12:39.692Z,86.74
2022-09-27T11:13:39.635Z,86.70
2022-09-27T11:14:39.584Z,86.65
2022-09-27T11:15:39.527Z,86.74
2022-09-27T11:16:41.542Z,86.70
2022-09-27T11:17:39.420Z,86.99
2022-09-27T11:18:39.378Z,87.08
2022-09-27T11:19:39.311Z,87.08
2022-09-27T11:20:39.259Z,87.08
2022-09-27T11:21:39.202Z,87.03
2022-09-27T11:22:39.150Z,87.18
2022-09-27T11:23:39.096Z,87.18
2022-09-27T11:24:39.041Z,87.56
2022-09-27T11:25:38.986Z,87.03
2022-09-27T11:26:38.942Z,87.18
2022-09-27T11:27:38.878Z,87.66
2022-09-27T11:28:38.830Z,87.37
2022-09-27T11:29:38.770Z,87.13
2022-09-27T11:30:38.719Z,87.37
2022-09-27T11:31:38.703Z,87.08
2022-09-27T11:32:38.613Z,87.37
2022-09-27T11:33:38.555Z,87.66
2022-09-27T11:34:38.503Z,87.41
2022-09-27T11:35:38.464Z,87.56
2022-09-27T11:36:38.398Z,87.32
2022-09-27T11:37:38.338Z,87.85
2022-09-27T11:38:52.604Z,87.66
2022-09-27T11:39:38.229Z,87.51
2022-09-27T11:40:38.230Z,87.47
2022-09-27T11:41:38.120Z,87.47
2022-09-27T11:42:38.078Z,87.56
2022-09-27T11:43:38.012Z,87.90
2022-09-27T11:44:37.966Z,87.51
2022-09-27T11:46:41.972Z,87.56
2022-09-27T11:47:37.915Z,87.51
2022-09-27T11:48:37.744Z,87.32
2022-09-27T11:49:37.690Z,87.37
2022-09-27T11:50:37.635Z,87.32
2022-09-27T11:51:37.583Z,87.27
2022-09-27T11:52:37.532Z,87.47
2022-09-27T11:53:37.473Z,87.80
2022-09-27T11:54:37.423Z,87.70
2022-09-27T11:55:37.365Z,87.70
2022-09-27T11:56:37.312Z,88.09
2022-09-27T11:57:37.256Z,87.80
2022-09-27T11:58:37.227Z,87.51
2022-09-27T11:59:37.148Z,88.18
2022-09-27T12:00:37.099Z,88.47
2022-09-27T12:01:37.094Z,88.28
2022-09-27T12:02:37.024Z,87.99
2022-09-27T12:03:36.933Z,88.28
2022-09-27T12:04:36.880Z,87.90
2022-09-27T12:05:36.828Z,88.28
2022-09-27T12:06:36.803Z,88.18
2022-09-27T12:07:36.718Z,88.66
2022-09-27T12:08:36.665Z,88.47
2022-09-27T12:09:36.609Z,88.47
2022-09-27T12:10:36.557Z,88.66
2022-09-27T12:11:36.501Z,88.47
2022-09-27T12:12:36.452Z,88.66
2022-09-27T12:13:36.393Z,88.76
2022-09-27T12:14:36.347Z,89.04
2022-09-27T12:15:36.327Z,89.04
2022-09-27T12:16:36.246Z,88.76
2022-09-27T12:17:36.175Z,88.90
2022-09-27T12:18:36.124Z,88.85
2022-09-27T12:19:36.077Z,88.90
2022-09-27T12:20:36.019Z,88.66
2022-09-27T12:21:35.960Z,88.56
2022-09-27T12:22:57.457Z,88.95
2022-09-27T12:23:36.716Z,89.43
2022-09-27T12:24:35.800Z,89.43
2022-09-27T12:25:35.745Z,89.62
2022-09-27T12:26:35.692Z,89.52
2022-09-27T12:27:35.637Z,89.19
2022-09-27T12:28:35.583Z,88.85
2022-09-27T12:29:35.528Z,88.66
2022-09-27T12:30:35.483Z,89.90
2022-09-27T12:31:35.467Z,89.23
2022-09-27T12:32:35.370Z,89.23
2022-09-27T12:33:35.314Z,88.56
2022-09-27T12:34:35.260Z,88.81
2022-09-27T12:35:35.206Z,88.76
2022-09-27T12:37:35.097Z,88.85
2022-09-27T12:38:35.044Z,88.95
2022-09-27T12:39:34.989Z,88.66
2022-09-27T12:40:34.985Z,88.95
2022-09-27T12:41:34.880Z,88.90
2022-09-27T12:42:34.828Z,88.90
2022-09-27T12:43:34.774Z,89.62
2022-09-27T12:44:34.751Z,88.66
2022-09-27T12:45:34.669Z,88.90
2022-09-27T12:46:34.693Z,89.48
2022-09-27T12:47:34.569Z,88.95
2022-09-27T12:48:34.504Z,88.90
2022-09-27T12:49:34.452Z,89.19
2022-09-27T12:50:34.395Z,89.52
2022-09-27T12:51:34.340Z,89.58
2022-09-27T12:52:34.289Z,89.72
2022-09-27T12:53:34.232Z,89.90
2022-09-27T12:54:34.179Z,89.72
2022-09-27T12:55:34.124Z,89.33
2022-09-27T12:56:34.077Z,89.29
2022-09-27T12:57:34.014Z,89.43
2022-09-27T12:58:33.963Z,89.52
2022-09-27T12:59:33.916Z,89.43
2022-09-27T13:00:33.858Z,89.38
2022-09-27T13:01:33.952Z,89.38
2022-09-27T13:02:33.875Z,89.81
2022-09-27T13:03:33.695Z,89.67
2022-09-27T13:04:33.641Z,89.58
2022-09-27T13:05:33.584Z,89.81
2022-09-27T13:06:33.533Z,89.72
2022-09-27T13:07:33.478Z,89.81
2022-09-27T13:08:33.424Z,89.23
2022-09-27T13:09:33.368Z,89.43
2022-09-27T13:10:33.316Z,89.72
2022-09-27T13:11:33.260Z,89.67
2022-09-27T13:12:33.210Z,89.76
2022-09-27T13:13:36.555Z,89.38
2022-09-27T13:14:33.100Z,89.14
2022-09-27T13:15:33.056Z,89.19
2022-09-27T13:16:33.062Z,89.19
2022-09-27T13:17:32.938Z,89.38
2022-09-27T13:18:32.904Z,89.19
2022-09-27T13:19:32.829Z,89.38
2022-09-27T13:20:32.788Z,89.33
2022-09-27T13:21:32.734Z,89.33
2022-09-27T13:22:32.668Z,89.62
2022-09-27T13:23:32.614Z,89.52
2022-09-27T13:24:32.561Z,89.04
2022-09-27T13:25:32.587Z,89.52
2022-09-27T13:26:32.453Z,89.52
2022-09-27T13:27:32.397Z,89.52
2022-09-27T13:28:32.364Z,89.23
2022-09-27T13:29:32.289Z,89.33
2022-09-27T13:30:32.238Z,89.33
2022-09-27T13:31:32.203Z,89.29
2022-09-27T13:32:32.159Z,89.33
2022-09-27T13:33:32.075Z,89.23
2022-09-27T13:34:32.053Z,89.52
2022-09-27T13:35:31.965Z,89.33